Time;durP1;ratioP1;P1;durP2;ratioP2;P2;SDS_P1;SDS_P2;PMS_P1;PMS_P2;Temp;Humidity;BMP_temperature;BMP_pressure;BME280_temperature;BME280_humidity;BME280_pressure;Samples;Min_cycle;Max_cycle;Signal;HPM_P1;HPM_P2
2021/06/02 00:01:59;;;;;;;4.65;1.50;;;;;;;12.86;55.30;100581.92;1692248;82;21118;-64
2021/06/02 00:04:36;;;;;;;4.67;1.55;;;;;;;12.86;54.96;100577.09;1698377;82;21195;-66
2021/06/02 00:07:09;;;;;;;3.75;1.72;;;;;;;12.85;54.96;100570.98;1663820;83;21069;-64
2021/06/02 00:09:34;;;;;;;4.65;1.57;;;;;;;12.82;55.01;100579.17;1688539;83;21050;-64
2021/06/02 00:12:08;;;;;;;5.90;2.25;;;;;;;12.81;54.69;100577.02;1695596;83;21007;-65
2021/06/02 00:14:34;;;;;;;4.22;1.80;;;;;;;12.81;54.68;100577.52;1693184;83;21050;-65
2021/06/02 00:17:00;;;;;;;4.28;1.65;;;;;;;12.79;54.97;100572.37;1663016;83;21223;-64
2021/06/02 00:19:27;;;;;;;4.62;1.87;;;;;;;12.79;55.10;100571.51;1711066;82;21098;-65
2021/06/02 00:21:55;;;;;;;4.83;1.67;;;;;;;12.79;55.44;100565.77;1692116;83;21075;-64
2021/06/02 00:24:24;;;;;;;6.12;2.00;;;;;;;12.80;55.21;100556.86;1688127;83;21098;-63
2021/06/02 00:26:56;;;;;;;5.75;1.95;;;;;;;12.79;54.56;100565.77;1703838;82;21070;-64
2021/06/02 00:29:33;;;;;;;4.60;1.70;;;;;;;12.80;54.94;100565.27;1710835;81;21760;-65
2021/06/02 00:32:06;;;;;;;4.53;1.90;;;;;;;12.79;54.77;100558.30;1708867;82;21530;-63
2021/06/02 00:34:33;;;;;;;4.60;1.90;;;;;;;12.77;54.91;100561.08;1692946;82;21114;-63
2021/06/02 00:37:00;;;;;;;4.67;1.60;;;;;;;12.75;54.88;100556.42;1666227;84;21787;-64
2021/06/02 00:39:27;;;;;;;7.67;1.77;;;;;;;12.77;54.62;100557.61;1684612;82;21663;-64
2021/06/02 00:41:55;;;;;;;8.60;1.82;;;;;;;12.75;55.10;100554.27;1684550;83;21858;-64
2021/06/02 00:44:22;;;;;;;7.62;1.40;;;;;;;12.76;55.26;100544.91;1691262;83;21109;-65
2021/06/02 00:46:50;;;;;;;4.50;1.47;;;;;;;12.78;55.13;100545.59;1702734;82;21023;-65
2021/06/02 00:49:26;;;;;;;4.97;1.77;;;;;;;12.78;54.56;100540.81;1688068;83;21636;-64
2021/06/02 00:52:02;;;;;;;6.37;1.87;;;;;;;12.78;54.64;100547.41;1699883;82;21571;-64
2021/06/02 00:54:32;;;;;;;5.62;1.80;;;;;;;12.77;55.32;100537.31;1668847;83;21863;-63
2021/06/02 00:57:13;;;;;;;7.03;1.75;;;;;;;12.73;55.41;100538.56;1703603;82;21086;-64
2021/06/02 01:00:06;;;;;;;5.62;2.08;;;;;;;12.71;55.09;100533.91;1674345;83;21126;-65
2021/06/02 01:02:35;;;;;;;6.90;2.00;;;;;;;12.69;55.12;100535.81;1673617;83;21057;-63
2021/06/02 01:05:02;;;;;;;3.80;1.80;;;;;;;12.65;55.06;100535.74;1702179;82;21126;-63
2021/06/02 01:07:29;;;;;;;4.53;1.70;;;;;;;12.62;55.28;100539.97;1674244;83;21414;-64
2021/06/02 01:09:56;;;;;;;5.20;1.52;;;;;;;12.60;55.12;100546.69;1673530;83;21047;-65
2021/06/02 01:12:27;;;;;;;4.37;1.67;;;;;;;12.60;55.51;100530.03;1693657;83;21007;-65
2021/06/02 01:14:55;;;;;;;4.72;1.80;;;;;;;12.59;55.62;100541.08;1698962;83;21024;-65
2021/06/02 01:17:26;;;;;;;5.17;1.82;;;;;;;12.61;55.60;100534.35;1691461;83;21067;-64
2021/06/02 01:19:55;;;;;;;5.08;2.00;;;;;;;12.61;55.94;100535.67;1701962;83;21990;-62
2021/06/02 01:22:22;;;;;;;5.12;1.75;;;;;;;12.61;55.89;100534.35;1693566;82;22009;-64
2021/06/02 01:24:49;;;;;;;5.60;1.77;;;;;;;12.61;55.96;100535.67;1680821;83;21106;-64
2021/06/02 01:27:15;;;;;;;9.10;1.98;;;;;;;12.61;55.77;100540.95;1697409;83;21035;-63
2021/06/02 01:29:46;;;;;;;5.00;1.62;;;;;;;12.63;56.26;100536.37;1674842;83;21568;-63
2021/06/02 01:32:56;;;;;;;3.87;1.80;;;;;;;12.62;55.78;100546.10;1696829;82;21153;-63
2021/06/02 01:35:57;;;;;;;7.50;1.80;;;;;;;12.62;56.19;100547.42;1672845;83;21142;-62
2021/06/02 01:39:04;;;;;;;4.85;1.52;;;;;;;12.64;56.11;100549.91;1680507;83;21068;-64
2021/06/02 01:42:05;;;;;;;5.05;2.02;;;;;;;12.60;56.17;100548.51;1694337;83;21093;-64
2021/06/02 01:45:10;;;;;;;6.10;1.82;;;;;;;12.59;56.47;100550.78;1576448;86;21486;-63
2021/06/02 01:48:15;;;;;;;5.05;1.77;;;;;;;12.60;56.00;100544.55;1654426;84;21069;-63
2021/06/02 01:50:59;;;;;;;4.67;1.60;;;;;;;12.62;55.98;100537.33;1678175;83;21077;-64
2021/06/02 01:53:44;;;;;;;5.37;1.95;;;;;;;12.63;55.02;100534.55;1658757;84;21110;-63
2021/06/02 01:56:35;;;;;;;6.40;1.90;;;;;;;12.65;54.49;100535.74;1699231;82;21022;-63
2021/06/02 01:59:41;;;;;;;5.53;1.85;;;;;;;12.65;55.12;100527.83;1646479;83;21601;-63
2021/06/02 02:02:51;;;;;;;4.28;1.52;;;;;;;12.67;55.33;100549.64;1677141;82;21094;-65
2021/06/02 02:05:44;;;;;;;7.28;1.60;;;;;;;12.66;55.24;100549.31;1592638;87;21101;-66
2021/06/02 02:08:37;;;;;;;6.03;1.70;;;;;;;12.64;55.33;100538.02;1613249;86;21100;-63
2021/06/02 02:11:21;;;;;;;7.08;1.80;;;;;;;12.64;55.64;100548.58;1658867;83;21122;-65
2021/06/02 02:14:19;;;;;;;4.23;1.83;;;;;;;12.62;54.65;100534.69;1663289;84;21634;-64
2021/06/02 02:17:15;;;;;;;7.33;1.92;;;;;;;12.59;54.98;100540.22;1686557;83;21670;-64
2021/06/02 02:20:05;;;;;;;4.50;2.33;;;;;;;12.57;55.80;100538.20;1681059;84;21085;-65
2021/06/02 02:23:10;;;;;;;4.55;1.57;;;;;;;12.56;55.46;100537.88;1689827;82;21351;-65
2021/06/02 02:26:14;;;;;;;6.80;1.90;;;;;;;12.54;55.76;100531.86;1678890;83;21536;-65
2021/06/02 02:29:12;;;;;;;6.47;2.45;;;;;;;12.52;55.40;100524.57;1662680;84;21078;-65
2021/06/02 02:31:53;;;;;;;5.80;2.15;;;;;;;12.51;55.30;100536.08;1682286;83;21145;-63
2021/06/02 02:34:25;;;;;;;5.03;1.70;;;;;;;12.49;55.46;100529.64;1682777;83;21105;-62
2021/06/02 02:37:16;;;;;;;3.85;1.27;;;;;;;12.50;56.19;100543.17;1655755;84;21052;-64
2021/06/02 02:40:19;;;;;;;4.28;1.65;;;;;;;12.53;56.20;100546.05;1665761;83;21684;-66
2021/06/02 02:43:08;;;;;;;6.10;2.20;;;;;;;12.54;55.80;100545.92;1666527;84;21036;-62
2021/06/02 02:46:03;;;;;;;5.47;1.60;;;;;;;12.52;56.19;100558.39;1677880;84;21056;-64
2021/06/02 02:49:05;;;;;;;5.87;1.75;;;;;;;12.53;56.52;100550.84;1663491;84;21070;-67
2021/06/02 02:52:19;;;;;;;5.55;1.75;;;;;;;12.56;56.19;100564.27;1675883;82;21712;-64
2021/06/02 02:55:04;;;;;;;5.28;1.50;;;;;;;12.56;55.76;100567.73;1687318;83;21633;-64
2021/06/02 02:58:16;;;;;;;8.10;1.80;;;;;;;12.55;56.06;100575.78;1679458;83;20998;-63
2021/06/02 03:01:05;;;;;;;4.72;1.92;;;;;;;12.55;56.19;100573.14;1701451;82;21209;-66
2021/06/02 03:03:48;;;;;;;3.65;1.35;;;;;;;12.55;55.71;100565.23;1678125;83;21013;-63
2021/06/02 03:06:24;;;;;;;5.55;1.90;;;;;;;12.55;55.72;100573.14;1706148;82;21071;-64
2021/06/02 03:09:09;;;;;;;5.80;1.70;;;;;;;12.55;55.31;100572.65;1712721;82;21507;-64
2021/06/02 03:11:48;;;;;;;8.18;1.82;;;;;;;12.58;56.01;100567.61;1699674;81;21082;-60
2021/06/02 03:14:25;;;;;;;8.68;1.92;;;;;;;12.59;55.49;100574.54;1693365;83;21624;-60
2021/06/02 03:17:13;;;;;;;5.65;1.45;;;;;;;12.61;55.41;100573.95;1702224;82;21101;-60
2021/06/02 03:20:24;;;;;;;5.20;1.72;;;;;;;12.60;54.94;100582.83;1699986;82;21082;-66
2021/06/02 03:23:20;;;;;;;3.37;1.20;;;;;;;12.61;55.40;100580.05;1679973;83;21129;-66
2021/06/02 03:26:13;;;;;;;4.80;1.60;;;;;;;12.61;55.40;100574.78;1717417;83;21522;-66
2021/06/02 03:29:17;;;;;;;6.08;1.95;;;;;;;12.60;55.43;100580.19;1688635;83;21246;-65
2021/06/02 03:32:22;;;;;;;3.80;1.52;;;;;;;12.60;55.84;100578.37;1693219;82;21036;-65
2021/06/02 03:35:12;;;;;;;5.00;1.80;;;;;;;12.61;56.20;100570.81;1702330;83;21020;-65
2021/06/02 03:37:59;;;;;;;5.05;2.00;;;;;;;12.61;55.91;100577.41;1703583;82;21021;-63
2021/06/02 03:40:42;;;;;;;5.37;1.50;;;;;;;12.60;55.46;100578.37;1698376;82;21146;-63
2021/06/02 03:43:34;;;;;;;5.83;1.35;;;;;;;12.60;55.75;100578.37;1700610;81;21070;-64
2021/06/02 03:46:30;;;;;;;5.97;1.67;;;;;;;12.59;55.29;100568.80;1687250;83;21127;-65
2021/06/02 03:49:09;;;;;;;6.40;1.57;;;;;;;12.57;55.84;100575.16;1685448;83;21027;-65
2021/06/02 03:51:57;;;;;;;3.85;1.65;;;;;;;12.55;56.25;100566.55;1696138;83;21541;-67
2021/06/02 03:54:53;;;;;;;5.90;1.70;;;;;;;12.57;56.18;100565.92;1648902;85;21047;-66
2021/06/02 03:57:31;;;;;;;4.87;1.70;;;;;;;12.58;56.24;100562.33;1705071;81;21133;-64
2021/06/02 04:00:10;;;;;;;5.20;1.50;;;;;;;12.58;56.38;100575.03;1693195;83;21208;-67
2021/06/02 04:03:03;;;;;;;5.83;1.87;;;;;;;12.58;56.22;100566.28;1708526;82;21039;-65
2021/06/02 04:05:53;;;;;;;4.37;1.27;;;;;;;12.57;55.95;100564.60;1690438;83;21123;-67
2021/06/02 04:08:42;;;;;;;7.22;1.70;;;;;;;12.56;56.44;100576.97;1692141;82;21116;-65
2021/06/02 04:11:36;;;;;;;6.00;1.70;;;;;;;12.57;56.09;100569.88;1692214;81;21878;-66
2021/06/02 04:14:07;;;;;;;4.15;1.60;;;;;;;12.56;56.27;100574.33;1696868;82;21122;-64
2021/06/02 04:16:36;;;;;;;4.60;1.67;;;;;;;12.55;57.15;100571.33;1701253;83;21066;-64
2021/06/02 04:19:06;;;;;;;4.83;1.47;;;;;;;12.59;57.76;100571.90;1703393;82;22264;-65
2021/06/02 04:21:38;;;;;;;5.37;1.65;;;;;;;12.70;56.94;100563.91;1679255;83;21077;-66
2021/06/02 04:24:09;;;;;;;5.72;1.50;;;;;;;12.77;57.88;100554.97;1665220;83;21905;-66
2021/06/02 04:26:36;;;;;;;5.78;1.60;;;;;;;12.76;56.27;100553.28;1680568;83;21504;-66
2021/06/02 04:29:11;;;;;;;4.80;1.65;;;;;;;12.74;56.50;100557.87;1672566;84;21089;-64
2021/06/02 04:32:02;;;;;;;5.05;1.47;;;;;;;12.71;56.43;100552.39;1688165;82;21151;-65
2021/06/02 04:34:29;;;;;;;7.42;1.80;;;;;;;12.72;57.02;100564.60;1693622;83;21091;-65
2021/06/02 04:36:58;;;;;;;4.55;1.70;;;;;;;12.70;55.76;100553.34;1679184;83;21724;-66
2021/06/02 04:39:26;;;;;;;4.70;2.02;;;;;;;12.66;56.66;100570.43;1695828;82;21035;-64
2021/06/02 04:41:55;;;;;;;4.55;1.72;;;;;;;12.66;56.37;100573.06;1694187;82;21082;-66
2021/06/02 04:44:26;;;;;;;3.95;1.52;;;;;;;12.67;57.17;100574.72;1682507;83;21071;-66
2021/06/02 04:46:52;;;;;;;4.58;1.67;;;;;;;12.68;57.42;100572.45;1695222;83;21146;-64
2021/06/02 04:49:43;;;;;;;5.28;1.70;;;;;;;12.70;57.79;100579.74;1694501;83;21079;-64
2021/06/02 04:52:49;;;;;;;5.55;1.62;;;;;;;12.72;58.30;100586.22;1668599;84;21728;-64
2021/06/02 04:55:40;;;;;;;6.85;1.85;;;;;;;12.79;57.79;100584.25;1660827;85;21632;-65
2021/06/02 04:58:50;;;;;;;7.15;2.08;;;;;;;12.81;57.62;100577.02;1711966;81;21612;-63
2021/06/02 05:01:52;;;;;;;4.30;1.65;;;;;;;12.73;59.40;100587.90;1700617;81;21141;-68
2021/06/02 05:04:39;;;;;;;5.08;1.95;;;;;;;12.66;59.33;100581.45;1701807;82;21917;-63
2021/06/02 05:07:58;;;;;;;6.47;1.90;;;;;;;12.62;60.30;100586.16;1691020;82;21094;-64
2021/06/02 05:11:08;;;;;;;4.42;1.60;;;;;;;12.62;60.71;100583.06;1687210;83;21110;-64
2021/06/02 05:14:26;;;;;;;4.70;1.80;;;;;;;12.71;60.43;100584.53;1691021;82;21173;-64
2021/06/02 05:17:29;;;;;;;5.67;2.00;;;;;;;12.75;60.14;100584.14;1715377;82;21071;-64
2021/06/02 05:23:46;;;;;;;7.33;2.65;;;;;;;12.74;60.02;100574.57;1679304;83;21055;-64
2021/06/02 05:26:55;;;;;;;4.53;2.02;;;;;;;12.76;59.51;100582.33;1710291;81;21677;-63
2021/06/02 05:29:38;;;;;;;3.67;1.57;;;;;;;12.78;59.34;100590.98;1689575;81;21169;-70
2021/06/02 05:32:53;;;;;;;3.62;1.40;;;;;;;12.80;59.56;100593.83;1694889;81;21157;-61
2021/06/02 05:35:49;;;;;;;4.90;1.60;;;;;;;12.91;59.04;100588.95;1704218;81;21495;-63
2021/06/02 05:39:04;;;;;;;9.53;2.20;;;;;;;12.95;58.92;100589.52;1703592;81;21510;-63
2021/06/02 05:42:12;;;;;;;3.83;1.37;;;;;;;12.95;58.56;100583.74;1690271;83;21118;-65
2021/06/02 05:45:18;;;;;;;3.30;1.40;;;;;;;12.96;57.56;100589.39;1689000;83;21024;-64
2021/06/02 05:48:33;;;;;;;4.97;1.67;;;;;;;12.96;57.90;100586.75;1694226;82;21082;-64
2021/06/02 05:51:37;;;;;;;4.17;1.67;;;;;;;12.94;57.82;100586.52;1692836;82;21189;-66
2021/06/02 05:57:47;;;;;;;6.70;1.90;;;;;;;12.89;57.82;100583.44;1736003;80;21050;-67
2021/06/02 06:01:09;;;;;;;4.10;1.77;;;;;;;12.86;58.13;100591.62;1713692;81;21120;-67
2021/06/02 06:04:03;;;;;;;5.60;1.50;;;;;;;12.91;58.71;100603.48;1728150;80;21112;-66
2021/06/02 06:07:06;;;;;;;6.00;1.90;;;;;;;13.04;58.91;100601.91;1733604;80;21544;-64
2021/06/02 06:10:01;;;;;;;4.87;1.82;;;;;;;13.07;58.05;100597.69;1768150;78;21183;-67
2021/06/02 06:12:47;;;;;;;5.17;2.00;;;;;;;13.08;57.92;100603.33;1761786;79;21050;-64
2021/06/02 06:15:56;;;;;;;8.75;1.87;;;;;;;13.09;57.94;100601.52;1770189;79;21045;-65
2021/06/02 06:18:35;;;;;;;5.22;1.47;;;;;;;13.07;57.96;100593.72;1746256;80;21020;-67
2021/06/02 06:21:28;;;;;;;9.98;2.17;;;;;;;13.06;57.77;100587.25;1716234;81;21487;-65
2021/06/02 06:24:12;;;;;;;5.67;1.82;;;;;;;13.07;57.83;100592.90;1747718;79;21086;-66
2021/06/02 06:27:05;;;;;;;4.05;1.55;;;;;;;13.03;56.96;100571.20;1731681;80;21211;-65
2021/06/02 06:29:52;;;;;;;5.15;1.77;;;;;;;13.06;57.56;100591.21;1772580;78;21056;-63
2021/06/02 06:32:19;;;;;;;5.08;1.80;;;;;;;13.03;57.56;100581.77;1770163;79;21184;-66
2021/06/02 06:34:47;;;;;;;5.05;1.50;;;;;;;13.05;57.47;100577.18;1755440;79;21529;-66
2021/06/02 06:37:15;;;;;;;5.03;1.92;;;;;;;13.18;57.88;100584.88;1754952;78;21073;-64
2021/06/02 06:39:52;;;;;;;5.30;1.85;;;;;;;13.29;57.65;100590.52;1761386;79;21129;-63
2021/06/02 06:42:24;;;;;;;;;;;;;;;13.36;57.52;100590.36;1765166;78;21592;-62
2021/06/02 06:44:56;;;;;;;5.00;1.80;;;;;;;13.38;57.45;100593.69;1721219;81;20234;-61
2021/06/02 06:47:23;;;;;;;5.90;2.17;;;;;;;13.35;57.53;100597.95;1733250;79;21116;-62
2021/06/02 06:49:55;;;;;;;5.03;1.57;;;;;;;13.37;58.17;100592.04;1743374;80;21698;-63
2021/06/02 06:52:23;;;;;;;5.60;1.77;;;;;;;13.41;57.25;100593.42;1736906;80;21279;-66
2021/06/02 06:54:52;;;;;;;7.42;1.47;;;;;;;13.45;57.35;100584.73;1718401;80;21061;-62
2021/06/02 06:58:50;;;;;;;9.00;2.12;;;;;;;13.51;56.92;100559.91;1829316;77;22588;-62
2021/06/02 07:01:17;;;;;;;5.87;1.80;;;;;;;13.54;56.79;100583.93;1803326;77;20986;-60
2021/06/02 07:03:45;;;;;;;4.83;1.32;;;;;;;13.59;56.61;100578.23;1792745;77;21124;-63
2021/06/02 07:06:15;;;;;;;5.62;1.75;;;;;;;13.62;56.62;100575.32;1797257;77;21556;-64
2021/06/02 07:08:43;;;;;;;3.90;1.52;;;;;;;13.69;56.74;100572.47;1792117;78;21113;-63
2021/06/02 07:11:15;;;;;;;6.17;1.50;;;;;;;13.76;56.49;100578.86;1713811;82;21065;-62
2021/06/02 07:13:47;;;;;;;6.35;1.72;;;;;;;13.83;56.02;100576.00;1798306;78;21050;-64
2021/06/02 07:16:16;;;;;;;6.65;1.40;;;;;;;13.91;56.00;100581.44;1760329;78;20958;-63
2021/06/02 07:18:46;;;;;;;5.65;1.72;;;;;;;13.98;56.46;100571.63;1801558;78;21060;-64
2021/06/02 07:21:13;;;;;;;6.05;1.62;;;;;;;14.02;56.09;100571.67;1803432;78;21090;-64
2021/06/02 07:23:40;;;;;;;5.65;1.82;;;;;;;14.09;55.74;100586.03;1782064;78;21118;-64
2021/06/02 07:26:08;;;;;;;5.30;1.50;;;;;;;14.17;56.04;100576.91;1810544;78;21510;-66
2021/06/02 07:28:38;;;;;;;6.15;1.70;;;;;;;14.23;55.42;100578.14;1797012;78;21125;-65
2021/06/02 07:31:06;;;;;;;4.28;1.30;;;;;;;14.27;54.33;100580.38;1800331;77;21109;-67
2021/06/02 07:33:33;;;;;;;5.20;1.35;;;;;;;14.29;54.75;100581.06;1790430;78;21790;-65
2021/06/02 07:36:01;;;;;;;6.65;1.95;;;;;;;14.34;54.71;100584.61;1698615;82;21068;-66
2021/06/02 07:38:28;;;;;;;5.50;1.87;;;;;;;14.41;54.92;100579.58;1742079;80;21061;-66
2021/06/02 07:40:55;;;;;;;3.92;1.32;;;;;;;14.48;54.77;100583.31;1775842;78;21038;-66
2021/06/02 07:43:21;;;;;;;5.75;1.70;;;;;;;14.55;53.91;100591.02;1805838;77;21544;-64
2021/06/02 07:45:49;;;;;;;3.70;1.45;;;;;;;14.58;53.80;100589.41;1802117;78;21558;-65
2021/06/02 07:48:16;;;;;;;4.20;1.27;;;;;;;14.62;53.88;100589.49;1807002;78;21145;-64
2021/06/02 07:50:43;;;;;;;4.62;1.45;;;;;;;14.65;54.14;100585.23;1813367;78;21043;-66
2021/06/02 07:53:09;;;;;;;5.95;1.90;;;;;;;14.71;53.47;100599.73;1805341;78;21067;-65
2021/06/02 07:55:37;;;;;;;7.10;1.32;;;;;;;14.71;53.18;100581.66;1803733;77;21476;-66
2021/06/02 07:58:04;;;;;;;4.08;1.35;;;;;;;14.72;52.80;100593.94;1756049;79;21108;-65
2021/06/02 08:00:30;;;;;;;4.83;1.50;;;;;;;14.68;52.78;100596.05;1775687;78;21046;-67
2021/06/02 08:02:58;;;;;;;4.42;1.20;;;;;;;14.70;52.87;100589.28;1780200;78;21071;-68
2021/06/02 08:05:25;;;;;;;4.40;1.27;;;;;;;14.70;53.27;100598.55;1780760;79;21118;-66
2021/06/02 08:07:52;;;;;;;2.85;1.05;;;;;;;14.71;52.58;100596.23;1785569;78;21149;-65
2021/06/02 08:10:18;;;;;;;5.10;1.52;;;;;;;14.74;53.31;100603.39;1785110;79;21060;-67
2021/06/02 08:12:45;;;;;;;6.83;1.30;;;;;;;14.77;54.28;100591.69;1785019;79;21188;-63
2021/06/02 08:15:14;;;;;;;4.60;1.35;;;;;;;14.79;54.14;100601.64;1774628;80;21079;-70
2021/06/02 08:17:40;;;;;;;5.12;1.47;;;;;;;14.82;54.31;100602.69;1752530;78;21829;-69
2021/06/02 08:20:09;;;;;;;6.35;1.45;;;;;;;14.86;54.55;100598.75;1738165;81;21076;-69
2021/06/02 08:22:37;;;;;;;4.67;1.40;;;;;;;14.90;54.26;100597.99;1715741;82;21540;-71
2021/06/02 08:25:10;;;;;;;3.95;1.40;;;;;;;14.92;53.43;100588.91;1711568;83;21046;-67
2021/06/02 08:27:38;;;;;;;6.55;2.02;;;;;;;14.91;52.62;100586.40;1742222;80;21470;-65
2021/06/02 08:30:07;;;;;;;4.12;1.20;;;;;;;14.89;53.38;100597.14;1724826;80;21097;-69
2021/06/02 08:32:34;;;;;;;4.22;1.30;;;;;;;14.89;53.42;100598.96;1711374;80;21406;-69
2021/06/02 08:35:00;;;;;;;5.55;1.65;;;;;;;14.89;53.29;100606.41;1738714;80;21042;-69
2021/06/02 08:37:27;;;;;;;6.08;1.98;;;;;;;14.91;52.88;100601.83;1748130;80;21085;-66
2021/06/02 08:39:54;;;;;;;4.72;1.72;;;;;;;14.94;53.26;100600.19;1710016;81;21101;-71
2021/06/02 08:42:22;;;;;;;4.75;1.27;;;;;;;15.00;53.30;100616.01;1719486;81;21500;-69
2021/06/02 08:44:53;;;;;;;6.15;1.72;;;;;;;15.03;52.62;100607.27;1723934;81;21025;-73
2021/06/02 08:47:20;;;;;;;3.50;1.12;;;;;;;15.10;53.62;100610.17;1696661;81;21141;-68
2021/06/02 08:49:46;;;;;;;6.47;1.72;;;;;;;15.16;52.99;100609.59;1692085;82;21101;-72
2021/06/02 08:52:13;;;;;;;4.50;1.32;;;;;;;15.19;52.32;100609.77;1729871;81;21014;-66
2021/06/02 08:54:41;;;;;;;3.77;1.40;;;;;;;15.19;52.76;100607.13;1721927;81;21129;-68
2021/06/02 08:57:09;;;;;;;6.10;2.00;;;;;;;15.20;53.02;100608.30;1715658;81;21113;-67
2021/06/02 08:59:36;;;;;;;4.53;1.60;;;;;;;15.25;52.96;100601.24;1734307;82;21006;-66
2021/06/02 09:02:04;;;;;;;4.25;1.52;;;;;;;15.30;52.55;100610.05;1701324;82;21082;-65
2021/06/02 09:04:32;;;;;;;3.00;1.27;;;;;;;15.36;52.36;100608.97;1726563;82;21007;-66
2021/06/02 09:07:04;;;;;;;4.22;1.30;;;;;;;15.41;51.55;100598.75;1741274;81;21003;-68
2021/06/02 09:09:32;;;;;;;3.90;1.42;;;;;;;15.45;51.19;100579.89;1683426;83;21112;-65
2021/06/02 09:12:14;;;;;;;4.87;1.40;;;;;;;15.50;51.94;100610.30;1737075;81;21097;-67
2021/06/02 09:14:40;;;;;;;3.83;1.45;;;;;;;15.57;52.00;100607.89;1723465;82;21062;-65
2021/06/02 09:17:11;;;;;;;3.25;1.05;;;;;;;15.66;52.04;100600.34;1732317;81;21684;-68
2021/06/02 09:19:45;;;;;;;5.47;1.40;;;;;;;15.79;52.05;100603.48;1727376;82;21552;-74
2021/06/02 09:22:20;;;;;;;6.08;2.17;;;;;;;15.93;51.93;100601.29;1730961;82;21074;-68
2021/06/02 09:24:54;;;;;;;5.42;1.55;;;;;;;15.99;50.53;100602.02;1737463;81;21255;-68
2021/06/02 09:27:51;;;;;;;4.65;1.55;;;;;;;16.01;50.63;100605.84;1718649;82;21020;-70
2021/06/02 09:30:27;;;;;;;4.05;1.47;;;;;;;16.00;50.52;100598.86;1707561;82;21185;-67
2021/06/02 09:32:56;;;;;;;;;;;;;;;15.96;51.23;100595.69;1734439;82;22103;-71
2021/06/02 09:35:22;;;;;;;5.00;1.27;;;;;;;15.98;50.92;100602.99;1736949;81;20161;-71
2021/06/02 09:37:57;;;;;;;4.78;1.45;;;;;;;15.93;51.02;100603.44;1723921;81;21027;-73
2021/06/02 09:40:33;;;;;;;4.42;1.60;;;;;;;15.95;50.84;100607.27;1717465;81;21402;-67
2021/06/02 09:43:01;;;;;;;6.28;1.75;;;;;;;15.91;50.77;100610.73;1717716;82;21086;-68
2021/06/02 09:45:28;;;;;;;4.47;1.57;;;;;;;15.88;51.20;100618.16;1733520;82;21131;-69
2021/06/02 09:48:00;;;;;;;6.92;1.40;;;;;;;15.87;50.88;100610.70;1717866;82;21682;-70
2021/06/02 09:50:33;;;;;;;4.80;1.70;;;;;;;15.87;51.70;100604.07;1725486;81;21004;-67
2021/06/02 09:53:02;;;;;;;5.12;1.50;;;;;;;15.87;51.03;100614.69;1725166;82;21075;-68
2021/06/02 09:55:33;;;;;;;4.53;1.75;;;;;;;15.89;50.85;100614.53;1733910;82;21007;-73
2021/06/02 09:58:10;;;;;;;4.72;1.50;;;;;;;15.93;51.43;100614.05;1723841;81;21189;-67
2021/06/02 10:00:54;;;;;;;4.67;1.47;;;;;;;15.99;51.13;100612.63;1804565;77;21105;-67
2021/06/02 10:03:27;;;;;;;3.90;1.27;;;;;;;16.06;51.69;100620.31;1747744;78;21068;-66
2021/06/02 10:05:52;;;;;;;5.97;1.20;;;;;;;16.15;51.56;100615.43;1800442;78;21097;-68
2021/06/02 10:08:30;;;;;;;4.42;1.72;;;;;;;16.28;51.26;100622.98;1798470;78;21077;-78
2021/06/02 10:11:13;;;;;;;3.80;1.22;;;;;;;16.38;51.23;100620.73;1813428;78;21039;-70
2021/06/02 10:13:40;;;;;;;6.05;1.75;;;;;;;16.46;49.67;100617.64;1782325;78;21046;-68
2021/06/02 10:16:09;;;;;;;5.78;1.72;;;;;;;16.53;49.89;100616.53;1808729;77;21034;-67
2021/06/02 10:18:38;;;;;;;3.72;1.30;;;;;;;16.59;50.49;100620.37;1816019;78;21527;-66
2021/06/02 10:21:12;;;;;;;3.22;1.00;;;;;;;16.65;50.30;100622.41;1772107;78;21054;-69
2021/06/02 10:23:45;;;;;;;5.67;1.50;;;;;;;16.71;50.11;100613.83;1808497;78;21046;-74
2021/06/02 10:26:16;;;;;;;5.47;1.65;;;;;;;16.78;50.16;100617.98;1804049;78;20975;-72
2021/06/02 10:28:46;;;;;;;5.20;1.47;;;;;;;16.83;50.42;100625.84;1814888;78;21089;-69
2021/06/02 10:31:14;;;;;;;6.70;1.10;;;;;;;16.89;50.24;100627.91;1803712;78;21081;-67
2021/06/02 10:33:41;;;;;;;4.15;1.80;;;;;;;16.97;48.99;100628.94;1771325;78;21074;-75
2021/06/02 10:36:09;;;;;;;7.58;1.30;;;;;;;17.00;47.44;100616.66;1814737;78;21117;-69
2021/06/02 10:38:44;;;;;;;5.58;1.15;;;;;;;17.00;47.38;100622.80;1802430;77;21101;-75
2021/06/02 10:41:10;;;;;;;3.87;1.20;;;;;;;17.01;47.57;100631.59;1794403;78;21057;-68
2021/06/02 10:43:42;;;;;;;6.25;1.70;;;;;;;17.04;48.38;100633.94;1798765;78;21583;-68
2021/06/02 10:46:17;;;;;;;4.15;1.20;;;;;;;17.09;48.46;100634.30;1789034;78;21113;-72
2021/06/02 10:48:55;;;;;;;8.60;1.60;;;;;;;17.16;48.86;100634.50;1803280;77;21545;-71
2021/06/02 10:51:32;;;;;;;4.35;1.05;;;;;;;17.25;48.53;100637.03;1797175;78;21049;-68
2021/06/02 10:54:18;;;;;;;3.80;1.10;;;;;;;17.33;48.14;100628.74;1765748;78;21278;-69
2021/06/02 10:57:03;;;;;;;3.42;1.47;;;;;;;17.41;47.95;100627.44;1800347;78;21045;-68
2021/06/02 10:59:36;;;;;;;4.27;1.37;;;;;;;17.48;47.58;100631.62;1802432;79;21041;-68
2021/06/02 11:02:15;;;;;;;3.20;1.12;;;;;;;17.52;47.39;100628.48;1783046;79;21100;-68
2021/06/02 11:05:01;;;;;;;4.20;1.00;;;;;;;17.55;46.45;100625.98;1731031;80;21142;-69
2021/06/02 11:07:33;;;;;;;4.53;1.17;;;;;;;17.56;46.40;100631.14;1784554;79;21098;-69
2021/06/02 11:10:12;;;;;;;4.17;1.20;;;;;;;17.56;46.94;100628.98;1810690;77;21030;-72
2021/06/02 11:12:57;;;;;;;2.90;0.98;;;;;;;17.58;46.11;100634.47;1806736;78;21111;-60
2021/06/02 11:15:36;;;;;;;7.17;1.22;;;;;;;17.59;45.90;100633.48;1810345;77;21129;-66
2021/06/02 11:18:18;;;;;;;4.00;1.00;;;;;;;17.64;46.04;100623.18;1762950;80;21015;-71
2021/06/02 11:20:52;;;;;;;3.87;0.80;;;;;;;17.68;44.66;100635.66;1803913;77;20972;-72
2021/06/02 11:23:20;;;;;;;3.87;1.02;;;;;;;17.72;45.51;100640.15;1799717;79;21062;-73
2021/06/02 11:25:49;;;;;;;3.72;1.02;;;;;;;17.79;46.46;100638.02;1805828;78;21022;-71
2021/06/02 11:28:43;;;;;;;4.70;1.40;;;;;;;17.82;45.24;100633.70;1805087;78;21094;-67
2021/06/02 11:31:27;;;;;;;;;;;;;;;17.83;45.22;100633.19;1814944;78;21057;-67
2021/06/02 11:34:32;;;;;;;5.35;1.47;;;;;;;17.81;44.84;100636.02;1769308;79;20185;-67
2021/06/02 11:37:06;;;;;;;5.12;1.47;;;;;;;17.77;44.35;100636.50;1795810;78;21176;-67
2021/06/02 11:39:37;;;;;;;3.12;1.05;;;;;;;17.80;44.47;100613.08;1805358;77;21715;-67
2021/06/02 11:42:05;;;;;;;4.15;0.98;;;;;;;17.81;45.37;100633.35;1809386;78;21129;-69
2021/06/02 11:44:35;;;;;;;9.33;1.45;;;;;;;17.84;44.79;100622.89;1811516;78;21050;-76
2021/06/02 11:47:02;;;;;;;3.52;1.40;;;;;;;17.90;46.01;100636.06;1791067;78;21693;-68
2021/06/02 11:49:33;;;;;;;3.35;1.12;;;;;;;17.93;44.94;100632.56;1773422;78;21490;-66
2021/06/02 11:52:13;;;;;;;5.83;1.47;;;;;;;17.99;44.28;100643.90;1769282;78;21477;-68
2021/06/02 11:55:03;;;;;;;4.50;1.47;;;;;;;18.02;44.17;100628.08;1800606;78;21793;-75
2021/06/02 11:57:37;;;;;;;13.60;1.20;;;;;;;18.07;44.18;100631.58;1804892;77;21094;-69
2021/06/02 12:00:17;;;;;;;4.72;1.32;;;;;;;18.11;44.04;100631.09;1783948;78;21329;-69
2021/06/02 12:02:45;;;;;;;3.27;1.05;;;;;;;18.17;44.30;100630.44;1802421;77;21078;-70
2021/06/02 12:05:39;;;;;;;3.83;1.00;;;;;;;18.25;44.81;100633.58;1807941;77;21041;-73
2021/06/02 12:08:09;;;;;;;3.27;0.95;;;;;;;18.32;43.96;100630.57;1805985;78;22067;-72
2021/06/02 12:10:50;;;;;;;3.12;0.80;;;;;;;18.40;43.25;100624.93;1807668;77;21081;-70
2021/06/02 12:13:28;;;;;;;10.15;1.55;;;;;;;18.46;43.23;100626.89;1801625;78;21081;-72
2021/06/02 12:15:58;;;;;;;3.08;0.95;;;;;;;18.48;42.83;100634.25;1805802;77;21065;-70
2021/06/02 12:18:49;;;;;;;4.58;1.50;;;;;;;18.48;42.55;100628.92;1801538;78;21117;-70
2021/06/02 12:21:27;;;;;;;6.95;1.57;;;;;;;18.48;42.91;100631.58;1780097;77;21116;-75
2021/06/02 12:24:06;;;;;;;4.20;1.40;;;;;;;18.48;42.64;100627.59;1800128;77;21061;-73
2021/06/02 12:26:43;;;;;;;6.03;1.42;;;;;;;18.47;42.68;100623.24;1796650;77;21160;-68
2021/06/02 12:29:13;;;;;;;3.52;0.95;;;;;;;18.43;42.59;100628.08;1800434;78;21081;-70
2021/06/02 12:31:52;;;;;;;3.60;0.93;;;;;;;18.45;43.49;100638.58;1771004;78;21077;-68